Ban Lam Kradan, Thailand

11:18 AM +07 on May 26, 2017 (GMT +0700)
Khu Khot | | Change Station

Elev 15 ft 13.96 °N, 100.65 °E | Updated 27 seconds ago

Thunderstorm
Thunderstorm
79.9 °F
Feels Like 85 °F
N
0.0
Wind Variable Wind from East
Gusts 2.5 mph

Today
High -- | Low -- °F
--% Chance of Precip.
Yesterday
High -- | Low -- °F
Precip. -- in
Pressure 29.77 in
Visibility 1.9 miles
Clouds Few 1000 ft
Scattered Clouds 1800 ft
Mostly Cloudy 3000 ft
Heat Index 85 °F
Dew Point 77 °F
Humidity 90%
Rainfall 0.05 in
Snow Depth Not available.
5:48 AM 6:39 PM
New Moon, 0% visible
METAR VTBD 260400Z 20008KT 3000 TSRA FEW010 SCT018CB BKN030 25/25 Q1008 RERA BECMG TL0415 5000 TSRA
Pressure 29.77 in
Visibility 1.9 miles
Clouds Few 1000 ft
Scattered Clouds 1800 ft
Mostly Cloudy 3000 ft
Heat Index 85 °F
Dew Point 77 °F
Humidity 90%
Rainfall 0.05 in
Snow Depth Not available.
5:48 AM 6:39 PM
New Moon, 0% visible
METAR VTBD 260400Z 20008KT 3000 TSRA FEW010 SCT018CB BKN030 25/25 Q1008 RERA BECMG TL0415 5000 TSRA

Get Severe Weather Alerts

Thanks for signing up!

Be on the lookout for a verification email in your inbox.

You'll start receiving the daily forecast at 6 AM.

×

10-Day Weather Forecast

No radar image for this location.
×

Almanac

Astronomy

May. 26, 2017 Rise Set
Actual Time
Civil Twilight
Nautical Twilight
Astronomical Twilight
Moon
Length of Visible Light
Length of Day
Tomorrow will be .
, % of the Moon is Illuminated

Today's Extremes

Country Highs Country Lows

Community

WunderPhotos

Category 6

Welcome to Category 6. This is the collective home for Weather Underground's featured writeups by Dr. Jeff Masters (right), Bob Henson (left), Chris Burt, and other regular contributors.

Nearby

Air Quality

  Air Quality AQ Index Pollutant
Not available.

Snow Depth

Station Depth Elevation

Earthquake Activity

City Distance Mag. Time & Date
Minimum magnitude displayed is 2.5.

Coastal Water Temperatures

Place Temperature

Stations

Nearby Weather Stations

Station Location Temp. Windchill Dew Point Humidity Wind Precip. Elev Updated Type